sensor_id;sensor_type;location;lat;lon;timestamp;temperature;humidity
56046;DHT22;41913;51.030;3.706;2024-02-21T00:01:06;18.40;84.40
56046;DHT22;41913;51.030;3.706;2024-02-21T00:03:32;18.40;84.40
56046;DHT22;41913;51.030;3.706;2024-02-21T00:05:57;18.40;84.40
56046;DHT22;41913;51.030;3.706;2024-02-21T00:08:24;18.40;84.40
56046;DHT22;41913;51.030;3.706;2024-02-21T00:10:51;18.40;84.40
56046;DHT22;41913;51.030;3.706;2024-02-21T00:13:17;18.40;84.40
56046;DHT22;41913;51.030;3.706;2024-02-21T00:15:43;18.40;84.40
56046;DHT22;41913;51.030;3.706;2024-02-21T00:18:09;18.40;84.40
56046;DHT22;41913;51.030;3.706;2024-02-21T00:20:36;18.40;84.40
56046;DHT22;41913;51.030;3.706;2024-02-21T00:23:03;18.40;84.40
56046;DHT22;41913;51.030;3.706;2024-02-21T00:25:30;18.40;85.00
56046;DHT22;41913;51.030;3.706;2024-02-21T00:27:56;18.40;84.50
56046;DHT22;41913;51.030;3.706;2024-02-21T00:30:22;18.40;84.40
56046;DHT22;41913;51.030;3.706;2024-02-21T00:32:48;18.40;84.50
56046;DHT22;41913;51.030;3.706;2024-02-21T00:35:14;18.40;84.50
56046;DHT22;41913;51.030;3.706;2024-02-21T00:37:40;18.40;84.50
56046;DHT22;41913;51.030;3.706;2024-02-21T00:40:06;18.30;84.50
56046;DHT22;41913;51.030;3.706;2024-02-21T00:42:32;18.30;84.40
56046;DHT22;41913;51.030;3.706;2024-02-21T00:44:59;18.30;84.40
56046;DHT22;41913;51.030;3.706;2024-02-21T00:47:26;18.30;84.40
56046;DHT22;41913;51.030;3.706;2024-02-21T00:49:51;18.30;84.40
56046;DHT22;41913;51.030;3.706;2024-02-21T00:52:17;18.30;84.40
56046;DHT22;41913;51.030;3.706;2024-02-21T00:54:43;18.30;84.40
56046;DHT22;41913;51.030;3.706;2024-02-21T00:57:09;18.30;84.40
56046;DHT22;41913;51.030;3.706;2024-02-21T00:59:35;18.30;84.40
56046;DHT22;41913;51.030;3.706;2024-02-21T01:02:01;18.30;84.40
56046;DHT22;41913;51.030;3.706;2024-02-21T01:04:27;18.30;84.40
56046;DHT22;41913;51.030;3.706;2024-02-21T01:06:54;18.30;84.40
56046;DHT22;41913;51.030;3.706;2024-02-21T01:09:20;18.30;84.40
56046;DHT22;41913;51.030;3.706;2024-02-21T01:11:46;18.30;84.40
56046;DHT22;41913;51.030;3.706;2024-02-21T01:14:12;18.30;84.50
56046;DHT22;41913;51.030;3.706;2024-02-21T01:16:38;18.30;84.40
56046;DHT22;41913;51.030;3.706;2024-02-21T01:19:03;18.20;84.40
56046;DHT22;41913;51.030;3.706;2024-02-21T01:21:29;18.30;84.50
56046;DHT22;41913;51.030;3.706;2024-02-21T01:23:55;18.20;84.40
56046;DHT22;41913;51.030;3.706;2024-02-21T01:26:21;18.30;84.50
56046;DHT22;41913;51.030;3.706;2024-02-21T01:28:47;18.30;84.50
56046;DHT22;41913;51.030;3.706;2024-02-21T01:31:13;18.20;84.40
56046;DHT22;41913;51.030;3.706;2024-02-21T01:33:40;18.20;84.30
56046;DHT22;41913;51.030;3.706;2024-02-21T01:36:06;18.30;84.40
56046;DHT22;41913;51.030;3.706;2024-02-21T01:38:33;18.20;84.40
56046;DHT22;41913;51.030;3.706;2024-02-21T01:40:58;18.20;84.40
56046;DHT22;41913;51.030;3.706;2024-02-21T01:43:24;18.20;84.30
56046;DHT22;41913;51.030;3.706;2024-02-21T01:45:54;18.20;84.40
56046;DHT22;41913;51.030;3.706;2024-02-21T01:48:22;18.20;84.30
56046;DHT22;41913;51.030;3.706;2024-02-21T01:50:49;18.20;84.40
56046;DHT22;41913;51.030;3.706;2024-02-21T01:53:30;18.20;84.40
56046;DHT22;41913;51.030;3.706;2024-02-21T01:55:56;18.20;84.40
56046;DHT22;41913;51.030;3.706;2024-02-21T01:58:23;18.20;84.40
56046;DHT22;41913;51.030;3.706;2024-02-21T02:00:50;18.20;84.40
56046;DHT22;41913;51.030;3.706;2024-02-21T02:03:16;18.20;84.40
56046;DHT22;41913;51.030;3.706;2024-02-21T02:05:47;18.10;84.40
56046;DHT22;41913;51.030;3.706;2024-02-21T02:08:19;18.10;84.40
56046;DHT22;41913;51.030;3.706;2024-02-21T02:10:47;18.10;84.40
56046;DHT22;41913;51.030;3.706;2024-02-21T02:13:14;18.10;84.40
56046;DHT22;41913;51.030;3.706;2024-02-21T02:15:42;18.20;84.50
56046;DHT22;41913;51.030;3.706;2024-02-21T02:18:09;18.10;84.40
56046;DHT22;41913;51.030;3.706;2024-02-21T02:20:35;18.10;84.40
56046;DHT22;41913;51.030;3.706;2024-02-21T02:23:09;18.10;84.40
56046;DHT22;41913;51.030;3.706;2024-02-21T02:25:36;18.10;84.40
56046;DHT22;41913;51.030;3.706;2024-02-21T02:28:11;18.10;84.40
56046;DHT22;41913;51.030;3.706;2024-02-21T02:30:38;18.10;84.40
56046;DHT22;41913;51.030;3.706;2024-02-21T02:33:04;18.10;84.40
56046;DHT22;41913;51.030;3.706;2024-02-21T02:35:31;18.10;84.40
56046;DHT22;41913;51.030;3.706;2024-02-21T02:37:58;18.10;84.40
56046;DHT22;41913;51.030;3.706;2024-02-21T02:40:24;18.10;84.40
56046;DHT22;41913;51.030;3.706;2024-02-21T02:42:50;18.10;84.40
56046;DHT22;41913;51.030;3.706;2024-02-21T02:45:17;18.10;84.40
56046;DHT22;41913;51.030;3.706;2024-02-21T02:47:47;18.10;84.40
56046;DHT22;41913;51.030;3.706;2024-02-21T02:50:13;18.10;84.50
56046;DHT22;41913;51.030;3.706;2024-02-21T02:52:39;18.10;84.40
56046;DHT22;41913;51.030;3.706;2024-02-21T02:55:07;18.10;84.40
56046;DHT22;41913;51.030;3.706;2024-02-21T02:57:33;18.00;84.40
56046;DHT22;41913;51.030;3.706;2024-02-21T02:59:59;18.00;84.40
56046;DHT22;41913;51.030;3.706;2024-02-21T03:02:24;18.00;84.40
56046;DHT22;41913;51.030;3.706;2024-02-21T03:04:50;18.00;84.40
56046;DHT22;41913;51.030;3.706;2024-02-21T03:07:16;18.00;84.50
56046;DHT22;41913;51.030;3.706;2024-02-21T03:09:42;18.00;84.50
56046;DHT22;41913;51.030;3.706;2024-02-21T03:12:09;18.00;84.40
56046;DHT22;41913;51.030;3.706;2024-02-21T03:14:35;18.00;84.50
56046;DHT22;41913;51.030;3.706;2024-02-21T03:17:02;18.00;84.50
56046;DHT22;41913;51.030;3.706;2024-02-21T03:19:29;18.00;84.40
56046;DHT22;41913;51.030;3.706;2024-02-21T03:21:55;18.00;84.40
56046;DHT22;41913;51.030;3.706;2024-02-21T03:24:21;18.00;84.40
56046;DHT22;41913;51.030;3.706;2024-02-21T03:26:47;18.00;84.40
56046;DHT22;41913;51.030;3.706;2024-02-21T03:29:15;18.00;84.40
56046;DHT22;41913;51.030;3.706;2024-02-21T03:31:41;18.00;84.40
56046;DHT22;41913;51.030;3.706;2024-02-21T03:34:07;18.00;85.00
56046;DHT22;41913;51.030;3.706;2024-02-21T03:36:33;18.00;84.50
56046;DHT22;41913;51.030;3.706;2024-02-21T03:38:59;18.00;84.50
56046;DHT22;41913;51.030;3.706;2024-02-21T03:41:25;18.00;84.50
56046;DHT22;41913;51.030;3.706;2024-02-21T03:43:51;17.90;84.40
56046;DHT22;41913;51.030;3.706;2024-02-21T03:46:17;17.90;84.40
56046;DHT22;41913;51.030;3.706;2024-02-21T03:48:43;17.90;84.40
56046;DHT22;41913;51.030;3.706;2024-02-21T03:51:09;17.90;84.40
56046;DHT22;41913;51.030;3.706;2024-02-21T03:53:36;17.90;84.40
56046;DHT22;41913;51.030;3.706;2024-02-21T03:56:02;17.90;84.40
56046;DHT22;41913;51.030;3.706;2024-02-21T03:58:30;18.00;84.50
56046;DHT22;41913;51.030;3.706;2024-02-21T04:00:56;17.90;85.00
56046;DHT22;41913;51.030;3.706;2024-02-21T04:03:22;17.90;84.40
56046;DHT22;41913;51.030;3.706;2024-02-21T04:05:48;17.90;84.40
56046;DHT22;41913;51.030;3.706;2024-02-21T04:08:14;17.90;84.40
56046;DHT22;41913;51.030;3.706;2024-02-21T04:10:40;17.90;84.40
56046;DHT22;41913;51.030;3.706;2024-02-21T04:13:09;17.90;84.40
56046;DHT22;41913;51.030;3.706;2024-02-21T04:15:35;17.90;84.40
56046;DHT22;41913;51.030;3.706;2024-02-21T04:18:01;17.90;84.40
56046;DHT22;41913;51.030;3.706;2024-02-21T04:20:27;17.90;84.40
56046;DHT22;41913;51.030;3.706;2024-02-21T04:22:53;17.90;84.50
56046;DHT22;41913;51.030;3.706;2024-02-21T04:25:20;17.90;84.50
56046;DHT22;41913;51.030;3.706;2024-02-21T04:27:46;17.90;84.50
56046;DHT22;41913;51.030;3.706;2024-02-21T04:30:12;17.80;84.50
56046;DHT22;41913;51.030;3.706;2024-02-21T04:32:38;17.90;84.50
56046;DHT22;41913;51.030;3.706;2024-02-21T04:35:05;17.80;84.50
56046;DHT22;41913;51.030;3.706;2024-02-21T04:37:32;17.90;84.60
56046;DHT22;41913;51.030;3.706;2024-02-21T04:39:58;17.80;84.60
56046;DHT22;41913;51.030;3.706;2024-02-21T04:42:24;17.80;84.60
56046;DHT22;41913;51.030;3.706;2024-02-21T04:44:50;17.90;84.60
56046;DHT22;41913;51.030;3.706;2024-02-21T04:47:16;17.80;84.50
56046;DHT22;41913;51.030;3.706;2024-02-21T04:49:42;17.80;84.50
56046;DHT22;41913;51.030;3.706;2024-02-21T04:52:08;17.80;84.60
56046;DHT22;41913;51.030;3.706;2024-02-21T04:54:34;17.80;84.60
56046;DHT22;41913;51.030;3.706;2024-02-21T04:57:02;17.80;84.50
56046;DHT22;41913;51.030;3.706;2024-02-21T04:59:28;17.80;84.50
56046;DHT22;41913;51.030;3.706;2024-02-21T05:01:55;17.80;84.50
56046;DHT22;41913;51.030;3.706;2024-02-21T05:04:21;17.80;84.60
56046;DHT22;41913;51.030;3.706;2024-02-21T05:06:46;17.80;84.60
56046;DHT22;41913;51.030;3.706;2024-02-21T05:09:12;17.80;84.60
56046;DHT22;41913;51.030;3.706;2024-02-21T05:11:39;17.80;84.60
56046;DHT22;41913;51.030;3.706;2024-02-21T05:14:05;17.80;84.60
56046;DHT22;41913;51.030;3.706;2024-02-21T05:16:35;17.80;84.60
56046;DHT22;41913;51.030;3.706;2024-02-21T05:19:01;17.80;84.60
56046;DHT22;41913;51.030;3.706;2024-02-21T05:21:27;17.70;84.60
56046;DHT22;41913;51.030;3.706;2024-02-21T05:23:54;17.80;84.60
56046;DHT22;41913;51.030;3.706;2024-02-21T05:26:21;17.80;84.70
56046;DHT22;41913;51.030;3.706;2024-02-21T05:28:49;17.80;84.70
56046;DHT22;41913;51.030;3.706;2024-02-21T05:31:18;17.80;84.70
56046;DHT22;41913;51.030;3.706;2024-02-21T05:33:45;17.70;84.60
56046;DHT22;41913;51.030;3.706;2024-02-21T05:36:11;17.80;84.60
56046;DHT22;41913;51.030;3.706;2024-02-21T05:38:37;17.70;84.60
56046;DHT22;41913;51.030;3.706;2024-02-21T05:41:04;17.70;84.70
56046;DHT22;41913;51.030;3.706;2024-02-21T05:43:30;17.70;84.70
56046;DHT22;41913;51.030;3.706;2024-02-21T05:45:56;17.70;84.60
56046;DHT22;41913;51.030;3.706;2024-02-21T05:48:23;17.70;84.60
56046;DHT22;41913;51.030;3.706;2024-02-21T05:50:49;17.70;84.60
56046;DHT22;41913;51.030;3.706;2024-02-21T05:53:15;17.70;84.60
56046;DHT22;41913;51.030;3.706;2024-02-21T05:55:42;17.70;84.70
56046;DHT22;41913;51.030;3.706;2024-02-21T05:58:08;17.70;84.70
56046;DHT22;41913;51.030;3.706;2024-02-21T06:00:37;17.70;84.70
56046;DHT22;41913;51.030;3.706;2024-02-21T06:03:03;17.70;84.70
56046;DHT22;41913;51.030;3.706;2024-02-21T06:05:29;17.70;84.70
56046;DHT22;41913;51.030;3.706;2024-02-21T06:07:56;17.70;84.70
56046;DHT22;41913;51.030;3.706;2024-02-21T06:10:22;17.70;84.70
56046;DHT22;41913;51.030;3.706;2024-02-21T06:12:48;17.70;84.80
56046;DHT22;41913;51.030;3.706;2024-02-21T06:15:14;17.70;84.70
56046;DHT22;41913;51.030;3.706;2024-02-21T06:17:40;17.70;84.80
56046;DHT22;41913;51.030;3.706;2024-02-21T06:20:06;17.70;84.90
56046;DHT22;41913;51.030;3.706;2024-02-21T06:22:32;17.70;85.10
56046;DHT22;41913;51.030;3.706;2024-02-21T06:24:58;17.70;85.40
56046;DHT22;41913;51.030;3.706;2024-02-21T06:27:24;17.80;85.00
56046;DHT22;41913;51.030;3.706;2024-02-21T06:29:51;17.80;85.10
56046;DHT22;41913;51.030;3.706;2024-02-21T06:32:17;17.90;85.90
56046;DHT22;41913;51.030;3.706;2024-02-21T06:34:43;17.90;88.00
56046;DHT22;41913;51.030;3.706;2024-02-21T06:37:09;18.00;90.10
56046;DHT22;41913;51.030;3.706;2024-02-21T06:39:35;18.00;89.80
56046;DHT22;41913;51.030;3.706;2024-02-21T06:42:03;18.10;90.10
56046;DHT22;41913;51.030;3.706;2024-02-21T06:44:30;18.10;88.90
56046;DHT22;41913;51.030;3.706;2024-02-21T06:46:57;18.10;88.00
56046;DHT22;41913;51.030;3.706;2024-02-21T06:49:24;18.20;87.70
56046;DHT22;41913;51.030;3.706;2024-02-21T06:51:51;18.20;87.80
56046;DHT22;41913;51.030;3.706;2024-02-21T06:54:17;18.20;87.70
56046;DHT22;41913;51.030;3.706;2024-02-21T06:56:43;18.30;87.50
56046;DHT22;41913;51.030;3.706;2024-02-21T06:59:08;18.30;87.70
56046;DHT22;41913;51.030;3.706;2024-02-21T07:01:34;18.30;87.50
56046;DHT22;41913;51.030;3.706;2024-02-21T07:04:00;18.40;87.30
56046;DHT22;41913;51.030;3.706;2024-02-21T07:06:26;18.40;87.20
56046;DHT22;41913;51.030;3.706;2024-02-21T07:08:52;18.40;87.20
56046;DHT22;41913;51.030;3.706;2024-02-21T07:11:18;18.50;87.50
56046;DHT22;41913;51.030;3.706;2024-02-21T07:13:44;18.40;87.30
56046;DHT22;41913;51.030;3.706;2024-02-21T07:16:09;18.50;87.10
56046;DHT22;41913;51.030;3.706;2024-02-21T07:18:35;18.50;87.10
56046;DHT22;41913;51.030;3.706;2024-02-21T07:21:01;18.50;86.70
56046;DHT22;41913;51.030;3.706;2024-02-21T07:23:27;18.50;86.70
56046;DHT22;41913;51.030;3.706;2024-02-21T07:25:53;18.50;86.50
56046;DHT22;41913;51.030;3.706;2024-02-21T07:28:19;18.50;86.40
56046;DHT22;41913;51.030;3.706;2024-02-21T07:30:44;18.50;86.00
56046;DHT22;41913;51.030;3.706;2024-02-21T07:33:10;18.60;86.20
56046;DHT22;41913;51.030;3.706;2024-02-21T07:35:36;18.50;86.00
56046;DHT22;41913;51.030;3.706;2024-02-21T07:38:07;18.60;86.00
56046;DHT22;41913;51.030;3.706;2024-02-21T07:40:38;18.60;86.10
56046;DHT22;41913;51.030;3.706;2024-02-21T07:43:04;18.60;86.00
56046;DHT22;41913;51.030;3.706;2024-02-21T07:45:29;18.60;86.00
56046;DHT22;41913;51.030;3.706;2024-02-21T07:47:55;18.60;86.00
56046;DHT22;41913;51.030;3.706;2024-02-21T07:50:21;18.60;86.00
56046;DHT22;41913;51.030;3.706;2024-02-21T07:52:47;18.60;85.90
56046;DHT22;41913;51.030;3.706;2024-02-21T07:55:13;18.60;85.70
56046;DHT22;41913;51.030;3.706;2024-02-21T07:57:39;18.60;85.80
56046;DHT22;41913;51.030;3.706;2024-02-21T08:00:06;18.70;85.90
56046;DHT22;41913;51.030;3.706;2024-02-21T08:02:35;18.70;85.80
56046;DHT22;41913;51.030;3.706;2024-02-21T08:05:01;18.70;85.60
56046;DHT22;41913;51.030;3.706;2024-02-21T08:07:28;18.70;85.60
56046;DHT22;41913;51.030;3.706;2024-02-21T08:09:54;18.70;85.50
56046;DHT22;41913;51.030;3.706;2024-02-21T08:12:20;18.70;85.30
56046;DHT22;41913;51.030;3.706;2024-02-21T08:14:46;18.70;85.30
56046;DHT22;41913;51.030;3.706;2024-02-21T08:17:12;18.70;85.30
56046;DHT22;41913;51.030;3.706;2024-02-21T08:19:38;18.70;85.20
56046;DHT22;41913;51.030;3.706;2024-02-21T08:22:04;18.70;85.20
56046;DHT22;41913;51.030;3.706;2024-02-21T08:24:29;18.70;85.30
56046;DHT22;41913;51.030;3.706;2024-02-21T08:26:55;18.70;85.90
56046;DHT22;41913;51.030;3.706;2024-02-21T08:29:21;18.80;85.20
56046;DHT22;41913;51.030;3.706;2024-02-21T08:31:47;18.80;85.20
56046;DHT22;41913;51.030;3.706;2024-02-21T08:34:13;18.80;85.20
56046;DHT22;41913;51.030;3.706;2024-02-21T08:36:39;18.80;85.50
56046;DHT22;41913;51.030;3.706;2024-02-21T08:39:05;18.80;85.40
56046;DHT22;41913;51.030;3.706;2024-02-21T08:41:34;18.80;85.30
56046;DHT22;41913;51.030;3.706;2024-02-21T08:44:00;18.90;85.30
56046;DHT22;41913;51.030;3.706;2024-02-21T08:46:27;18.90;85.40
56046;DHT22;41913;51.030;3.706;2024-02-21T08:48:54;18.90;85.90
56046;DHT22;41913;51.030;3.706;2024-02-21T08:51:20;18.80;85.30
56046;DHT22;41913;51.030;3.706;2024-02-21T08:53:49;18.90;85.00
56046;DHT22;41913;51.030;3.706;2024-02-21T08:56:15;18.90;85.20
56046;DHT22;41913;51.030;3.706;2024-02-21T08:58:41;18.90;85.00
56046;DHT22;41913;51.030;3.706;2024-02-21T09:01:07;18.90;85.10
56046;DHT22;41913;51.030;3.706;2024-02-21T09:03:37;18.90;85.20
56046;DHT22;41913;51.030;3.706;2024-02-21T09:06:06;18.90;85.10
56046;DHT22;41913;51.030;3.706;2024-02-21T09:08:33;18.90;85.00
56046;DHT22;41913;51.030;3.706;2024-02-21T09:11:02;18.90;85.00
56046;DHT22;41913;51.030;3.706;2024-02-21T09:13:30;18.90;85.30
56046;DHT22;41913;51.030;3.706;2024-02-21T09:15:56;18.90;85.20
56046;DHT22;41913;51.030;3.706;2024-02-21T09:18:22;18.90;85.10
56046;DHT22;41913;51.030;3.706;2024-02-21T09:20:48;19.00;85.20
56046;DHT22;41913;51.030;3.706;2024-02-21T09:23:14;19.00;85.60
56046;DHT22;41913;51.030;3.706;2024-02-21T09:25:40;19.00;85.60
56046;DHT22;41913;51.030;3.706;2024-02-21T09:28:06;19.00;85.40
56046;DHT22;41913;51.030;3.706;2024-02-21T09:30:32;19.00;85.60
56046;DHT22;41913;51.030;3.706;2024-02-21T09:32:59;19.00;85.40
56046;DHT22;41913;51.030;3.706;2024-02-21T09:35:26;19.00;85.20
56046;DHT22;41913;51.030;3.706;2024-02-21T09:37:54;19.00;85.40
56046;DHT22;41913;51.030;3.706;2024-02-21T09:40:21;19.00;85.30
56046;DHT22;41913;51.030;3.706;2024-02-21T09:42:47;19.00;85.60
56046;DHT22;41913;51.030;3.706;2024-02-21T09:45:24;19.00;85.80
56046;DHT22;41913;51.030;3.706;2024-02-21T09:50:30;19.00;85.50
56046;DHT22;41913;51.030;3.706;2024-02-21T09:52:59;19.00;85.90
56046;DHT22;41913;51.030;3.706;2024-02-21T09:55:27;19.00;85.30
56046;DHT22;41913;51.030;3.706;2024-02-21T09:57:56;19.00;84.70
56046;DHT22;41913;51.030;3.706;2024-02-21T10:00:23;19.00;84.40
56046;DHT22;41913;51.030;3.706;2024-02-21T10:02:49;19.00;84.20
56046;DHT22;41913;51.030;3.706;2024-02-21T10:05:16;19.00;84.30
56046;DHT22;41913;51.030;3.706;2024-02-21T10:07:43;19.00;84.40
56046;DHT22;41913;51.030;3.706;2024-02-21T10:10:10;19.00;84.50
56046;DHT22;41913;51.030;3.706;2024-02-21T10:12:36;19.00;84.40
56046;DHT22;41913;51.030;3.706;2024-02-21T10:15:09;19.00;84.20
56046;DHT22;41913;51.030;3.706;2024-02-21T10:17:35;19.00;84.20
56046;DHT22;41913;51.030;3.706;2024-02-21T10:20:09;19.00;83.90
56046;DHT22;41913;51.030;3.706;2024-02-21T10:22:35;19.00;84.00
56046;DHT22;41913;51.030;3.706;2024-02-21T10:25:12;19.00;83.90
56046;DHT22;41913;51.030;3.706;2024-02-21T10:27:41;19.00;84.00
56046;DHT22;41913;51.030;3.706;2024-02-21T10:30:13;19.00;83.60
56046;DHT22;41913;51.030;3.706;2024-02-21T10:32:54;19.00;83.90
56046;DHT22;41913;51.030;3.706;2024-02-21T10:35:30;19.00;84.00
56046;DHT22;41913;51.030;3.706;2024-02-21T10:37:57;19.00;84.20
56046;DHT22;41913;51.030;3.706;2024-02-21T10:40:29;19.00;84.10
56046;DHT22;41913;51.030;3.706;2024-02-21T10:42:59;19.00;84.20
56046;DHT22;41913;51.030;3.706;2024-02-21T10:45:34;19.00;83.80
56046;DHT22;41913;51.030;3.706;2024-02-21T10:48:14;19.00;83.70
56046;DHT22;41913;51.030;3.706;2024-02-21T10:53:53;19.00;83.50
56046;DHT22;41913;51.030;3.706;2024-02-21T10:56:30;19.00;83.30
56046;DHT22;41913;51.030;3.706;2024-02-21T10:59:04;19.00;83.10
56046;DHT22;41913;51.030;3.706;2024-02-21T11:01:30;19.00;82.90
56046;DHT22;41913;51.030;3.706;2024-02-21T11:04:05;19.00;82.80
56046;DHT22;41913;51.030;3.706;2024-02-21T11:06:34;19.00;82.40
56046;DHT22;41913;51.030;3.706;2024-02-21T11:09:08;19.00;82.00
56046;DHT22;41913;51.030;3.706;2024-02-21T11:11:39;19.00;81.60
56046;DHT22;41913;51.030;3.706;2024-02-21T11:16:41;19.00;81.40
56046;DHT22;41913;51.030;3.706;2024-02-21T11:19:28;19.00;81.20
56046;DHT22;41913;51.030;3.706;2024-02-21T11:21:55;18.90;81.10
56046;DHT22;41913;51.030;3.706;2024-02-21T11:24:40;18.90;81.10
56046;DHT22;41913;51.030;3.706;2024-02-21T11:27:12;18.90;81.00
56046;DHT22;41913;51.030;3.706;2024-02-21T11:29:45;19.00;81.00
56046;DHT22;41913;51.030;3.706;2024-02-21T11:32:15;18.90;80.80
56046;DHT22;41913;51.030;3.706;2024-02-21T11:34:59;18.90;80.70
56046;DHT22;41913;51.030;3.706;2024-02-21T11:37:30;18.90;80.50
56046;DHT22;41913;51.030;3.706;2024-02-21T11:39:58;18.90;80.50
56046;DHT22;41913;51.030;3.706;2024-02-21T11:42:28;18.90;80.40
56046;DHT22;41913;51.030;3.706;2024-02-21T11:44:55;18.90;80.30
56046;DHT22;41913;51.030;3.706;2024-02-21T11:47:24;18.90;80.30
56046;DHT22;41913;51.030;3.706;2024-02-21T11:49:50;18.90;80.20
56046;DHT22;41913;51.030;3.706;2024-02-21T11:52:21;18.90;80.30
56046;DHT22;41913;51.030;3.706;2024-02-21T11:54:50;18.90;80.40
56046;DHT22;41913;51.030;3.706;2024-02-21T11:57:17;18.90;80.40
56046;DHT22;41913;51.030;3.706;2024-02-21T11:59:45;18.90;80.30
56046;DHT22;41913;51.030;3.706;2024-02-21T12:02:13;18.90;80.10
56046;DHT22;41913;51.030;3.706;2024-02-21T12:04:39;18.80;80.20
56046;DHT22;41913;51.030;3.706;2024-02-21T12:07:06;18.90;80.40
56046;DHT22;41913;51.030;3.706;2024-02-21T12:09:34;18.90;80.60
56046;DHT22;41913;51.030;3.706;2024-02-21T12:12:05;18.90;80.60
56046;DHT22;41913;51.030;3.706;2024-02-21T12:14:35;18.90;80.40
56046;DHT22;41913;51.030;3.706;2024-02-21T12:17:02;18.80;80.50
56046;DHT22;41913;51.030;3.706;2024-02-21T12:19:32;18.80;80.30
56046;DHT22;41913;51.030;3.706;2024-02-21T12:21:59;18.90;80.50
56046;DHT22;41913;51.030;3.706;2024-02-21T12:24:26;18.90;80.60
56046;DHT22;41913;51.030;3.706;2024-02-21T12:26:54;18.90;80.90
56046;DHT22;41913;51.030;3.706;2024-02-21T12:29:24;18.80;80.80
56046;DHT22;41913;51.030;3.706;2024-02-21T12:31:51;18.90;81.20
56046;DHT22;41913;51.030;3.706;2024-02-21T12:34:17;18.90;81.50
56046;DHT22;41913;51.030;3.706;2024-02-21T12:36:44;18.90;81.80
56046;DHT22;41913;51.030;3.706;2024-02-21T12:39:10;18.90;82.30
56046;DHT22;41913;51.030;3.706;2024-02-21T12:41:37;18.90;82.30
56046;DHT22;41913;51.030;3.706;2024-02-21T12:44:07;18.90;82.30
56046;DHT22;41913;51.030;3.706;2024-02-21T12:46:34;18.90;82.40
56046;DHT22;41913;51.030;3.706;2024-02-21T12:49:00;18.90;82.50
56046;DHT22;41913;51.030;3.706;2024-02-21T12:51:26;19.00;82.60
56046;DHT22;41913;51.030;3.706;2024-02-21T12:53:52;19.00;82.70
56046;DHT22;41913;51.030;3.706;2024-02-21T12:56:18;19.00;82.80
56046;DHT22;41913;51.030;3.706;2024-02-21T12:58:44;19.00;82.90
56046;DHT22;41913;51.030;3.706;2024-02-21T13:01:10;19.00;82.90
56046;DHT22;41913;51.030;3.706;2024-02-21T13:03:36;19.00;82.90
56046;DHT22;41913;51.030;3.706;2024-02-21T13:06:04;19.00;82.90
56046;DHT22;41913;51.030;3.706;2024-02-21T13:08:31;19.00;82.90
56046;DHT22;41913;51.030;3.706;2024-02-21T13:10:57;19.00;83.00
56046;DHT22;41913;51.030;3.706;2024-02-21T13:13:23;19.00;83.10
56046;DHT22;41913;51.030;3.706;2024-02-21T13:15:49;19.00;83.20
56046;DHT22;41913;51.030;3.706;2024-02-21T13:18:15;19.00;83.20
56046;DHT22;41913;51.030;3.706;2024-02-21T13:20:41;19.10;83.40
56046;DHT22;41913;51.030;3.706;2024-02-21T13:23:06;19.10;83.40
56046;DHT22;41913;51.030;3.706;2024-02-21T13:25:33;19.10;83.50
56046;DHT22;41913;51.030;3.706;2024-02-21T13:27:58;19.10;83.50
56046;DHT22;41913;51.030;3.706;2024-02-21T13:30:24;19.10;83.50
56046;DHT22;41913;51.030;3.706;2024-02-21T13:32:51;19.10;83.50
56046;DHT22;41913;51.030;3.706;2024-02-21T13:35:17;19.10;83.60
56046;DHT22;41913;51.030;3.706;2024-02-21T13:37:43;19.10;83.70
56046;DHT22;41913;51.030;3.706;2024-02-21T13:40:09;19.10;83.80
56046;DHT22;41913;51.030;3.706;2024-02-21T13:42:36;19.10;83.80
56046;DHT22;41913;51.030;3.706;2024-02-21T13:45:03;19.10;83.80
56046;DHT22;41913;51.030;3.706;2024-02-21T13:47:31;19.10;83.90
56046;DHT22;41913;51.030;3.706;2024-02-21T13:49:57;19.10;83.80
56046;DHT22;41913;51.030;3.706;2024-02-21T13:52:23;19.10;83.90
56046;DHT22;41913;51.030;3.706;2024-02-21T13:54:52;19.10;83.90
56046;DHT22;41913;51.030;3.706;2024-02-21T13:57:19;19.20;84.10
56046;DHT22;41913;51.030;3.706;2024-02-21T13:59:44;19.10;84.00
56046;DHT22;41913;51.030;3.706;2024-02-21T14:02:10;19.10;84.10
56046;DHT22;41913;51.030;3.706;2024-02-21T14:04:36;19.20;84.10
56046;DHT22;41913;51.030;3.706;2024-02-21T14:07:02;19.20;84.20
56046;DHT22;41913;51.030;3.706;2024-02-21T14:09:28;19.10;84.10
56046;DHT22;41913;51.030;3.706;2024-02-21T14:11:58;19.20;84.70
56046;DHT22;41913;51.030;3.706;2024-02-21T14:14:25;19.20;84.30
56046;DHT22;41913;51.030;3.706;2024-02-21T14:16:51;19.20;84.20
56046;DHT22;41913;51.030;3.706;2024-02-21T14:19:17;19.20;84.20
56046;DHT22;41913;51.030;3.706;2024-02-21T14:21:44;19.20;84.30
56046;DHT22;41913;51.030;3.706;2024-02-21T14:24:11;19.20;84.30
56046;DHT22;41913;51.030;3.706;2024-02-21T14:26:38;19.20;84.30
56046;DHT22;41913;51.030;3.706;2024-02-21T14:29:04;19.20;84.40
56046;DHT22;41913;51.030;3.706;2024-02-21T14:31:33;19.20;84.30
56046;DHT22;41913;51.030;3.706;2024-02-21T14:33:59;19.20;84.40
56046;DHT22;41913;51.030;3.706;2024-02-21T14:36:26;19.10;84.20
56046;DHT22;41913;51.030;3.706;2024-02-21T14:38:52;19.20;84.30
56046;DHT22;41913;51.030;3.706;2024-02-21T14:41:18;19.20;84.30
56046;DHT22;41913;51.030;3.706;2024-02-21T14:43:44;19.20;84.40
56046;DHT22;41913;51.030;3.706;2024-02-21T14:46:11;19.20;84.30
56046;DHT22;41913;51.030;3.706;2024-02-21T14:48:38;19.20;84.40
56046;DHT22;41913;51.030;3.706;2024-02-21T14:51:04;19.20;84.40
56046;DHT22;41913;51.030;3.706;2024-02-21T14:53:30;19.20;84.50
56046;DHT22;41913;51.030;3.706;2024-02-21T14:55:59;19.20;84.40
56046;DHT22;41913;51.030;3.706;2024-02-21T14:58:24;19.20;84.40
56046;DHT22;41913;51.030;3.706;2024-02-21T15:00:50;19.20;84.40
56046;DHT22;41913;51.030;3.706;2024-02-21T15:03:17;19.20;84.40
56046;DHT22;41913;51.030;3.706;2024-02-21T15:05:46;19.20;84.40
56046;DHT22;41913;51.030;3.706;2024-02-21T15:08:12;19.20;84.40
56046;DHT22;41913;51.030;3.706;2024-02-21T15:10:45;19.20;84.40
56046;DHT22;41913;51.030;3.706;2024-02-21T15:13:11;19.20;84.50
56046;DHT22;41913;51.030;3.706;2024-02-21T15:15:37;19.20;84.50
56046;DHT22;41913;51.030;3.706;2024-02-21T15:18:03;19.20;84.40
56046;DHT22;41913;51.030;3.706;2024-02-21T15:20:28;19.20;84.40
56046;DHT22;41913;51.030;3.706;2024-02-21T15:22:54;19.20;84.40
56046;DHT22;41913;51.030;3.706;2024-02-21T15:25:20;19.20;84.30
56046;DHT22;41913;51.030;3.706;2024-02-21T15:27:46;19.20;84.40
56046;DHT22;41913;51.030;3.706;2024-02-21T15:30:13;19.20;84.50
56046;DHT22;41913;51.030;3.706;2024-02-21T15:32:39;19.20;84.50
56046;DHT22;41913;51.030;3.706;2024-02-21T15:35:06;19.20;84.60
56046;DHT22;41913;51.030;3.706;2024-02-21T15:37:33;19.20;84.60